sensor_id;sensor_type;location;lat;lon;timestamp;P1;durP1;ratioP1;P2;durP2;ratioP2
537;SDS011;254;48.524;8.926;2023-01-09T00:00:03;2.2;;;1.7;;
537;SDS011;254;48.524;8.926;2023-01-09T00:01:09;2.4;;;1.8;;
537;SDS011;254;48.524;8.926;2023-01-09T00:02:03;1.9;;;1.5;;
537;SDS011;254;48.524;8.926;2023-01-09T00:03:01;2.0;;;1.5;;
537;SDS011;254;48.524;8.926;2023-01-09T00:04:02;3.1;;;1.6;;
537;SDS011;254;48.524;8.926;2023-01-09T00:05:03;1.9;;;1.4;;
537;SDS011;254;48.524;8.926;2023-01-09T00:06:01;2.6;;;1.1;;
537;SDS011;254;48.524;8.926;2023-01-09T00:07:02;2.4;;;1.4;;
537;SDS011;254;48.524;8.926;2023-01-09T00:08:03;1.8;;;1.1;;
537;SDS011;254;48.524;8.926;2023-01-09T00:09:02;2.1;;;1.1;;
537;SDS011;254;48.524;8.926;2023-01-09T00:10:02;2.7;;;1.2;;
537;SDS011;254;48.524;8.926;2023-01-09T00:11:03;1.9;;;1.1;;
537;SDS011;254;48.524;8.926;2023-01-09T00:12:01;2.2;;;1.2;;
537;SDS011;254;48.524;8.926;2023-01-09T00:13:02;1.6;;;1.0;;
537;SDS011;254;48.524;8.926;2023-01-09T00:14:02;1.9;;;1.1;;
537;SDS011;254;48.524;8.926;2023-01-09T00:15:03;1.7;;;1.0;;
537;SDS011;254;48.524;8.926;2023-01-09T00:16:02;1.7;;;1.1;;
537;SDS011;254;48.524;8.926;2023-01-09T00:17:03;1.9;;;1.1;;
537;SDS011;254;48.524;8.926;2023-01-09T00:18:02;1.6;;;.9;;
537;SDS011;254;48.524;8.926;2023-01-09T00:19:02;1.7;;;1.0;;
537;SDS011;254;48.524;8.926;2023-01-09T00:20:02;3.2;;;.9;;
537;SDS011;254;48.524;8.926;2023-01-09T00:21:03;2.1;;;1.0;;
537;SDS011;254;48.524;8.926;2023-01-09T00:22:02;1.6;;;.9;;
537;SDS011;254;48.524;8.926;2023-01-09T00:23:03;1.5;;;.8;;
537;SDS011;254;48.524;8.926;2023-01-09T00:24:02;1.7;;;1.0;;
537;SDS011;254;48.524;8.926;2023-01-09T00:25:03;1.7;;;1.0;;
537;SDS011;254;48.524;8.926;2023-01-09T00:26:04;1.7;;;1.1;;
537;SDS011;254;48.524;8.926;2023-01-09T00:27:03;1.7;;;1.1;;
537;SDS011;254;48.524;8.926;2023-01-09T00:28:02;1.5;;;.9;;
537;SDS011;254;48.524;8.926;2023-01-09T00:29:02;1.5;;;.9;;
537;SDS011;254;48.524;8.926;2023-01-09T00:30:03;2.7;;;1.0;;
537;SDS011;254;48.524;8.926;2023-01-09T00:31:03;1.6;;;.9;;
537;SDS011;254;48.524;8.926;2023-01-09T00:32:03;1.6;;;1.0;;
537;SDS011;254;48.524;8.926;2023-01-09T00:33:02;1.5;;;.9;;
537;SDS011;254;48.524;8.926;2023-01-09T00:34:03;1.7;;;.9;;
537;SDS011;254;48.524;8.926;2023-01-09T00:35:03;1.8;;;1.0;;
537;SDS011;254;48.524;8.926;2023-01-09T00:36:03;1.6;;;.9;;
537;SDS011;254;48.524;8.926;2023-01-09T00:37:02;1.5;;;.8;;
537;SDS011;254;48.524;8.926;2023-01-09T00:38:03;1.7;;;1.0;;
537;SDS011;254;48.524;8.926;2023-01-09T00:39:01;1.6;;;1.0;;
537;SDS011;254;48.524;8.926;2023-01-09T00:40:02;1.6;;;1.0;;
537;SDS011;254;48.524;8.926;2023-01-09T00:41:03;1.7;;;.9;;
537;SDS011;254;48.524;8.926;2023-01-09T00:42:02;2.4;;;.9;;
537;SDS011;254;48.524;8.926;2023-01-09T00:43:02;1.6;;;.9;;
537;SDS011;254;48.524;8.926;2023-01-09T00:44:05;1.6;;;.9;;
537;SDS011;254;48.524;8.926;2023-01-09T00:45:03;1.5;;;.9;;
537;SDS011;254;48.524;8.926;2023-01-09T00:46:02;2.1;;;.9;;
537;SDS011;254;48.524;8.926;2023-01-09T00:47:04;1.8;;;.9;;
537;SDS011;254;48.524;8.926;2023-01-09T00:48:05;1.6;;;.9;;
537;SDS011;254;48.524;8.926;2023-01-09T00:49:02;1.5;;;.8;;
537;SDS011;254;48.524;8.926;2023-01-09T00:50:04;1.5;;;.8;;
537;SDS011;254;48.524;8.926;2023-01-09T00:51:01;1.7;;;1.0;;
537;SDS011;254;48.524;8.926;2023-01-09T00:52:02;1.7;;;1.1;;
537;SDS011;254;48.524;8.926;2023-01-09T00:53:05;1.7;;;1.0;;
537;SDS011;254;48.524;8.926;2023-01-09T00:54:02;1.6;;;.9;;
537;SDS011;254;48.524;8.926;2023-01-09T00:55:02;1.6;;;.9;;
537;SDS011;254;48.524;8.926;2023-01-09T00:56:02;1.6;;;1.0;;
537;SDS011;254;48.524;8.926;2023-01-09T00:57:02;1.5;;;.9;;
537;SDS011;254;48.524;8.926;2023-01-09T00:58:02;1.5;;;.9;;
537;SDS011;254;48.524;8.926;2023-01-09T00:59:03;1.9;;;1.0;;
537;SDS011;254;48.524;8.926;2023-01-09T01:00:03;1.6;;;1.0;;
537;SDS011;254;48.524;8.926;2023-01-09T01:01:02;1.8;;;1.0;;
537;SDS011;254;48.524;8.926;2023-01-09T01:02:03;1.7;;;.9;;
537;SDS011;254;48.524;8.926;2023-01-09T01:03:01;2.3;;;1.0;;
537;SDS011;254;48.524;8.926;2023-01-09T01:04:02;1.5;;;.9;;
537;SDS011;254;48.524;8.926;2023-01-09T01:05:03;1.5;;;.8;;
537;SDS011;254;48.524;8.926;2023-01-09T01:06:01;1.8;;;.9;;
537;SDS011;254;48.524;8.926;2023-01-09T01:07:02;2.1;;;1.0;;
537;SDS011;254;48.524;8.926;2023-01-09T01:08:08;1.6;;;.9;;
537;SDS011;254;48.524;8.926;2023-01-09T01:09:02;1.5;;;.9;;
537;SDS011;254;48.524;8.926;2023-01-09T01:10:02;1.8;;;.9;;
537;SDS011;254;48.524;8.926;2023-01-09T01:11:03;1.7;;;.9;;
537;SDS011;254;48.524;8.926;2023-01-09T01:12:02;1.6;;;.9;;
537;SDS011;254;48.524;8.926;2023-01-09T01:13:03;1.6;;;.8;;
537;SDS011;254;48.524;8.926;2023-01-09T01:14:02;3.3;;;.9;;
537;SDS011;254;48.524;8.926;2023-01-09T01:15:03;2.5;;;.9;;
537;SDS011;254;48.524;8.926;2023-01-09T01:16:02;1.7;;;.9;;
537;SDS011;254;48.524;8.926;2023-01-09T01:17:03;2.3;;;.9;;
537;SDS011;254;48.524;8.926;2023-01-09T01:18:02;2.0;;;.8;;
537;SDS011;254;48.524;8.926;2023-01-09T01:19:02;1.4;;;.8;;
537;SDS011;254;48.524;8.926;2023-01-09T01:20:02;1.6;;;.9;;
537;SDS011;254;48.524;8.926;2023-01-09T01:21:04;1.6;;;.9;;
537;SDS011;254;48.524;8.926;2023-01-09T01:22:03;1.7;;;.9;;
537;SDS011;254;48.524;8.926;2023-01-09T01:23:02;2.5;;;.8;;
537;SDS011;254;48.524;8.926;2023-01-09T01:24:02;1.5;;;.9;;
537;SDS011;254;48.524;8.926;2023-01-09T01:25:02;1.9;;;.9;;
537;SDS011;254;48.524;8.926;2023-01-09T01:26:03;1.5;;;.8;;
537;SDS011;254;48.524;8.926;2023-01-09T01:27:03;1.6;;;.9;;
537;SDS011;254;48.524;8.926;2023-01-09T01:28:02;1.6;;;.8;;
537;SDS011;254;48.524;8.926;2023-01-09T01:29:01;2.2;;;.9;;
537;SDS011;254;48.524;8.926;2023-01-09T01:30:02;1.9;;;1.0;;
537;SDS011;254;48.524;8.926;2023-01-09T01:31:03;1.5;;;.9;;
537;SDS011;254;48.524;8.926;2023-01-09T01:32:01;1.5;;;.9;;
537;SDS011;254;48.524;8.926;2023-01-09T01:33:02;1.7;;;.9;;
537;SDS011;254;48.524;8.926;2023-01-09T01:34:02;1.8;;;.9;;
537;SDS011;254;48.524;8.926;2023-01-09T01:35:03;2.5;;;1.0;;
537;SDS011;254;48.524;8.926;2023-01-09T01:36:02;1.5;;;.9;;
537;SDS011;254;48.524;8.926;2023-01-09T01:37:02;1.6;;;.9;;
537;SDS011;254;48.524;8.926;2023-01-09T01:38:03;1.9;;;.9;;
537;SDS011;254;48.524;8.926;2023-01-09T01:39:02;1.5;;;.8;;
537;SDS011;254;48.524;8.926;2023-01-09T01:40:05;1.8;;;1.0;;
537;SDS011;254;48.524;8.926;2023-01-09T01:41:02;2.2;;;.9;;
537;SDS011;254;48.524;8.926;2023-01-09T01:42:02;2.5;;;.9;;
537;SDS011;254;48.524;8.926;2023-01-09T01:43:02;2.6;;;.8;;
537;SDS011;254;48.524;8.926;2023-01-09T01:44:03;1.7;;;.9;;
537;SDS011;254;48.524;8.926;2023-01-09T01:45:05;2.3;;;.9;;
537;SDS011;254;48.524;8.926;2023-01-09T01:46:02;1.5;;;.9;;
537;SDS011;254;48.524;8.926;2023-01-09T01:47:02;2.5;;;.9;;
537;SDS011;254;48.524;8.926;2023-01-09T01:48:04;1.8;;;.8;;
537;SDS011;254;48.524;8.926;2023-01-09T01:49:03;1.5;;;.9;;
537;SDS011;254;48.524;8.926;2023-01-09T01:50:04;1.7;;;.9;;
537;SDS011;254;48.524;8.926;2023-01-09T01:51:03;1.5;;;.9;;
537;SDS011;254;48.524;8.926;2023-01-09T01:52:02;1.5;;;.8;;
537;SDS011;254;48.524;8.926;2023-01-09T01:53:05;2.6;;;.9;;
537;SDS011;254;48.524;8.926;2023-01-09T01:54:03;1.6;;;.9;;
537;SDS011;254;48.524;8.926;2023-01-09T01:55:02;2.3;;;.9;;
537;SDS011;254;48.524;8.926;2023-01-09T01:56:03;1.8;;;.9;;
537;SDS011;254;48.524;8.926;2023-01-09T01:57:02;1.6;;;.9;;
537;SDS011;254;48.524;8.926;2023-01-09T01:58:03;1.5;;;.9;;
537;SDS011;254;48.524;8.926;2023-01-09T01:59:04;1.7;;;.9;;
537;SDS011;254;48.524;8.926;2023-01-09T02:00:02;1.6;;;.9;;
537;SDS011;254;48.524;8.926;2023-01-09T02:01:03;1.8;;;.8;;
537;SDS011;254;48.524;8.926;2023-01-09T02:02:02;1.7;;;.9;;
537;SDS011;254;48.524;8.926;2023-01-09T02:03:02;2.0;;;.8;;
537;SDS011;254;48.524;8.926;2023-01-09T02:04:03;1.6;;;.8;;
537;SDS011;254;48.524;8.926;2023-01-09T02:05:01;1.8;;;.8;;
537;SDS011;254;48.524;8.926;2023-01-09T02:06:02;1.5;;;.8;;
537;SDS011;254;48.524;8.926;2023-01-09T02:07:03;2.2;;;.8;;
537;SDS011;254;48.524;8.926;2023-01-09T02:08:02;1.6;;;.8;;
537;SDS011;254;48.524;8.926;2023-01-09T02:09:03;1.5;;;.8;;
537;SDS011;254;48.524;8.926;2023-01-09T02:10:02;1.5;;;.8;;
537;SDS011;254;48.524;8.926;2023-01-09T02:11:03;2.2;;;.8;;
537;SDS011;254;48.524;8.926;2023-01-09T02:12:12;2.4;;;.9;;
537;SDS011;254;48.524;8.926;2023-01-09T02:13:02;2.5;;;.8;;
537;SDS011;254;48.524;8.926;2023-01-09T02:14:02;1.5;;;.8;;
537;SDS011;254;48.524;8.926;2023-01-09T02:15:03;2.9;;;.8;;
537;SDS011;254;48.524;8.926;2023-01-09T02:16:11;1.6;;;.7;;
537;SDS011;254;48.524;8.926;2023-01-09T02:17:06;1.7;;;.8;;
537;SDS011;254;48.524;8.926;2023-01-09T02:18:10;1.4;;;.7;;
537;SDS011;254;48.524;8.926;2023-01-09T02:19:04;1.4;;;.7;;
537;SDS011;254;48.524;8.926;2023-01-09T02:20:17;1.5;;;.7;;
537;SDS011;254;48.524;8.926;2023-01-09T02:21:02;1.5;;;.7;;
537;SDS011;254;48.524;8.926;2023-01-09T02:22:04;1.5;;;.7;;
537;SDS011;254;48.524;8.926;2023-01-09T02:23:10;2.6;;;.8;;
537;SDS011;254;48.524;8.926;2023-01-09T02:24:13;1.6;;;.7;;
537;SDS011;254;48.524;8.926;2023-01-09T02:25:08;1.5;;;.7;;
537;SDS011;254;48.524;8.926;2023-01-09T02:26:11;2.3;;;.8;;
537;SDS011;254;48.524;8.926;2023-01-09T02:27:22;2.5;;;.8;;
537;SDS011;254;48.524;8.926;2023-01-09T02:28:12;2.1;;;.8;;
537;SDS011;254;48.524;8.926;2023-01-09T02:29:41;1.8;;;.8;;
537;SDS011;254;48.524;8.926;2023-01-09T02:30:10;1.5;;;.8;;
537;SDS011;254;48.524;8.926;2023-01-09T02:31:03;2.6;;;1.0;;
537;SDS011;254;48.524;8.926;2023-01-09T02:32:03;2.5;;;1.3;;
537;SDS011;254;48.524;8.926;2023-01-09T02:33:07;1.6;;;.7;;
537;SDS011;254;48.524;8.926;2023-01-09T02:34:04;1.5;;;.8;;
537;SDS011;254;48.524;8.926;2023-01-09T02:35:06;2.1;;;.8;;
537;SDS011;254;48.524;8.926;2023-01-09T02:36:11;1.5;;;.8;;
537;SDS011;254;48.524;8.926;2023-01-09T02:37:03;1.5;;;.8;;
537;SDS011;254;48.524;8.926;2023-01-09T02:38:05;2.0;;;.8;;
537;SDS011;254;48.524;8.926;2023-01-09T02:39:07;1.9;;;.9;;
537;SDS011;254;48.524;8.926;2023-01-09T02:40:03;2.7;;;.8;;
537;SDS011;254;48.524;8.926;2023-01-09T02:41:03;2.3;;;.9;;
537;SDS011;254;48.524;8.926;2023-01-09T02:42:04;1.5;;;.8;;
537;SDS011;254;48.524;8.926;2023-01-09T02:43:02;1.5;;;.8;;
537;SDS011;254;48.524;8.926;2023-01-09T02:44:19;1.6;;;.8;;
537;SDS011;254;48.524;8.926;2023-01-09T02:45:03;1.6;;;.8;;
537;SDS011;254;48.524;8.926;2023-01-09T02:46:02;1.5;;;.8;;
537;SDS011;254;48.524;8.926;2023-01-09T02:47:02;2.0;;;.9;;
537;SDS011;254;48.524;8.926;2023-01-09T02:48:02;1.9;;;.8;;
537;SDS011;254;48.524;8.926;2023-01-09T02:49:03;2.7;;;.9;;
537;SDS011;254;48.524;8.926;2023-01-09T02:50:03;1.6;;;.8;;
537;SDS011;254;48.524;8.926;2023-01-09T02:51:05;1.5;;;.8;;
537;SDS011;254;48.524;8.926;2023-01-09T02:52:07;2.0;;;.9;;
537;SDS011;254;48.524;8.926;2023-01-09T02:53:07;2.1;;;.8;;
537;SDS011;254;48.524;8.926;2023-01-09T02:54:07;2.5;;;.9;;
537;SDS011;254;48.524;8.926;2023-01-09T02:55:03;2.0;;;.9;;
537;SDS011;254;48.524;8.926;2023-01-09T02:56:08;1.6;;;.9;;
537;SDS011;254;48.524;8.926;2023-01-09T02:57:09;3.2;;;.9;;
537;SDS011;254;48.524;8.926;2023-01-09T02:58:04;2.3;;;.9;;
537;SDS011;254;48.524;8.926;2023-01-09T02:59:07;1.8;;;.8;;
537;SDS011;254;48.524;8.926;2023-01-09T03:00:07;1.6;;;.8;;
537;SDS011;254;48.524;8.926;2023-01-09T03:01:05;1.4;;;.7;;
537;SDS011;254;48.524;8.926;2023-01-09T03:02:07;1.6;;;.9;;
537;SDS011;254;48.524;8.926;2023-01-09T03:03:05;1.6;;;.8;;
537;SDS011;254;48.524;8.926;2023-01-09T03:04:03;3.1;;;.9;;
537;SDS011;254;48.524;8.926;2023-01-09T03:05:04;2.0;;;.7;;
537;SDS011;254;48.524;8.926;2023-01-09T03:06:04;1.5;;;.8;;
537;SDS011;254;48.524;8.926;2023-01-09T03:07:04;2.2;;;.9;;
537;SDS011;254;48.524;8.926;2023-01-09T03:08:02;1.5;;;.7;;
537;SDS011;254;48.524;8.926;2023-01-09T03:09:03;1.4;;;.7;;
537;SDS011;254;48.524;8.926;2023-01-09T03:10:04;1.6;;;.8;;
537;SDS011;254;48.524;8.926;2023-01-09T03:11:03;1.4;;;.7;;
537;SDS011;254;48.524;8.926;2023-01-09T03:12:03;2.1;;;.8;;
537;SDS011;254;48.524;8.926;2023-01-09T03:13:02;2.0;;;.8;;
537;SDS011;254;48.524;8.926;2023-01-09T03:14:04;1.6;;;.7;;
537;SDS011;254;48.524;8.926;2023-01-09T03:15:02;2.3;;;.8;;
537;SDS011;254;48.524;8.926;2023-01-09T03:16:04;1.9;;;.8;;
537;SDS011;254;48.524;8.926;2023-01-09T03:17:03;2.0;;;.8;;
537;SDS011;254;48.524;8.926;2023-01-09T03:18:03;1.5;;;.7;;
537;SDS011;254;48.524;8.926;2023-01-09T03:19:03;1.4;;;.7;;
537;SDS011;254;48.524;8.926;2023-01-09T03:20:03;1.6;;;.7;;
537;SDS011;254;48.524;8.926;2023-01-09T03:21:02;1.4;;;.7;;
537;SDS011;254;48.524;8.926;2023-01-09T03:22:02;1.6;;;.7;;
537;SDS011;254;48.524;8.926;2023-01-09T03:23:03;1.6;;;.7;;
537;SDS011;254;48.524;8.926;2023-01-09T03:24:02;1.5;;;.7;;
537;SDS011;254;48.524;8.926;2023-01-09T03:25:02;1.4;;;.7;;
537;SDS011;254;48.524;8.926;2023-01-09T03:26:01;2.5;;;.6;;
537;SDS011;254;48.524;8.926;2023-01-09T03:27:02;1.4;;;.7;;
537;SDS011;254;48.524;8.926;2023-01-09T03:28:03;1.4;;;.7;;
537;SDS011;254;48.524;8.926;2023-01-09T03:29:02;1.4;;;.6;;
537;SDS011;254;48.524;8.926;2023-01-09T03:30:02;1.4;;;.6;;
537;SDS011;254;48.524;8.926;2023-01-09T03:31:02;1.4;;;.6;;
537;SDS011;254;48.524;8.926;2023-01-09T03:32:03;1.4;;;.6;;
537;SDS011;254;48.524;8.926;2023-01-09T03:33:02;1.8;;;.7;;
537;SDS011;254;48.524;8.926;2023-01-09T03:34:03;2.6;;;.6;;
537;SDS011;254;48.524;8.926;2023-01-09T03:35:03;1.6;;;.6;;
537;SDS011;254;48.524;8.926;2023-01-09T03:36:02;1.4;;;.6;;
537;SDS011;254;48.524;8.926;2023-01-09T03:37:03;1.8;;;.6;;
537;SDS011;254;48.524;8.926;2023-01-09T03:38:01;1.5;;;.7;;
537;SDS011;254;48.524;8.926;2023-01-09T03:39:02;2.1;;;.7;;
537;SDS011;254;48.524;8.926;2023-01-09T03:40:04;1.4;;;.6;;
537;SDS011;254;48.524;8.926;2023-01-09T03:41:03;2.4;;;.6;;
537;SDS011;254;48.524;8.926;2023-01-09T03:42:02;1.4;;;.6;;
537;SDS011;254;48.524;8.926;2023-01-09T03:43:03;1.4;;;.6;;
537;SDS011;254;48.524;8.926;2023-01-09T03:44:03;1.4;;;.6;;
537;SDS011;254;48.524;8.926;2023-01-09T03:45:02;1.4;;;.6;;
537;SDS011;254;48.524;8.926;2023-01-09T03:46:03;1.7;;;.6;;
537;SDS011;254;48.524;8.926;2023-01-09T03:47:01;1.4;;;.6;;
537;SDS011;254;48.524;8.926;2023-01-09T03:48:02;1.7;;;.7;;
537;SDS011;254;48.524;8.926;2023-01-09T03:49:03;1.4;;;.6;;
537;SDS011;254;48.524;8.926;2023-01-09T03:50:03;1.5;;;.6;;
537;SDS011;254;48.524;8.926;2023-01-09T03:51:02;1.4;;;.6;;
537;SDS011;254;48.524;8.926;2023-01-09T03:52:03;1.8;;;.6;;
537;SDS011;254;48.524;8.926;2023-01-09T03:53:01;1.4;;;.6;;
537;SDS011;254;48.524;8.926;2023-01-09T03:54:02;1.4;;;.6;;
537;SDS011;254;48.524;8.926;2023-01-09T03:55:03;2.9;;;.7;;
537;SDS011;254;48.524;8.926;2023-01-09T03:56:02;1.4;;;.6;;
537;SDS011;254;48.524;8.926;2023-01-09T03:57:02;1.4;;;.7;;
537;SDS011;254;48.524;8.926;2023-01-09T03:58:02;1.4;;;.6;;
537;SDS011;254;48.524;8.926;2023-01-09T03:59:01;1.4;;;.6;;
537;SDS011;254;48.524;8.926;2023-01-09T04:00:02;1.4;;;.6;;
537;SDS011;254;48.524;8.926;2023-01-09T04:01:02;1.9;;;.6;;
537;SDS011;254;48.524;8.926;2023-01-09T04:02:02;1.4;;;.6;;
537;SDS011;254;48.524;8.926;2023-01-09T04:03:02;3.6;;;1.1;;
537;SDS011;254;48.524;8.926;2023-01-09T04:04:03;1.4;;;.6;;
537;SDS011;254;48.524;8.926;2023-01-09T04:05:02;1.4;;;.6;;
537;SDS011;254;48.524;8.926;2023-01-09T04:06:03;1.4;;;.6;;
537;SDS011;254;48.524;8.926;2023-01-09T04:07:01;1.4;;;.6;;
537;SDS011;254;48.524;8.926;2023-01-09T04:08:02;1.4;;;.6;;
537;SDS011;254;48.524;8.926;2023-01-09T04:09:02;1.4;;;.6;;
537;SDS011;254;48.524;8.926;2023-01-09T04:10:03;1.4;;;.6;;
537;SDS011;254;48.524;8.926;2023-01-09T04:11:02;1.4;;;.6;;
537;SDS011;254;48.524;8.926;2023-01-09T04:12:04;1.4;;;.6;;
537;SDS011;254;48.524;8.926;2023-01-09T04:13:02;1.4;;;.6;;
537;SDS011;254;48.524;8.926;2023-01-09T04:14:02;1.6;;;.7;;
537;SDS011;254;48.524;8.926;2023-01-09T04:15:02;1.4;;;.7;;
537;SDS011;254;48.524;8.926;2023-01-09T04:16:03;1.4;;;.6;;
537;SDS011;254;48.524;8.926;2023-01-09T04:17:02;1.5;;;.7;;
537;SDS011;254;48.524;8.926;2023-01-09T04:18:02;1.5;;;.7;;
537;SDS011;254;48.524;8.926;2023-01-09T04:19:03;1.4;;;.6;;
537;SDS011;254;48.524;8.926;2023-01-09T04:20:02;1.4;;;.7;;
537;SDS011;254;48.524;8.926;2023-01-09T04:21:03;3.7;;;.7;;
537;SDS011;254;48.524;8.926;2023-01-09T04:22:01;1.4;;;.6;;
537;SDS011;254;48.524;8.926;2023-01-09T04:23:02;1.4;;;.6;;
537;SDS011;254;48.524;8.926;2023-01-09T04:24:03;1.4;;;.6;;
537;SDS011;254;48.524;8.926;2023-01-09T04:25:03;1.6;;;.7;;
537;SDS011;254;48.524;8.926;2023-01-09T04:26:02;1.6;;;.7;;
537;SDS011;254;48.524;8.926;2023-01-09T04:27:03;2.1;;;.6;;
537;SDS011;254;48.524;8.926;2023-01-09T04:28:02;1.4;;;.6;;
537;SDS011;254;48.524;8.926;2023-01-09T04:29:02;1.4;;;.6;;
537;SDS011;254;48.524;8.926;2023-01-09T04:30:03;1.4;;;.6;;
537;SDS011;254;48.524;8.926;2023-01-09T04:31:01;1.4;;;.6;;
537;SDS011;254;48.524;8.926;2023-01-09T04:32:02;1.4;;;.6;;
537;SDS011;254;48.524;8.926;2023-01-09T04:33:02;1.4;;;.6;;
537;SDS011;254;48.524;8.926;2023-01-09T04:34:02;1.4;;;.7;;
537;SDS011;254;48.524;8.926;2023-01-09T04:35:02;1.4;;;.6;;
537;SDS011;254;48.524;8.926;2023-01-09T04:36:03;2.2;;;.7;;
537;SDS011;254;48.524;8.926;2023-01-09T04:37:01;1.4;;;.6;;
537;SDS011;254;48.524;8.926;2023-01-09T04:38:02;1.5;;;.7;;
537;SDS011;254;48.524;8.926;2023-01-09T04:39:02;1.6;;;.7;;
537;SDS011;254;48.524;8.926;2023-01-09T04:40:02;1.5;;;.7;;
537;SDS011;254;48.524;8.926;2023-01-09T04:41:02;1.7;;;.6;;
537;SDS011;254;48.524;8.926;2023-01-09T04:42:02;1.5;;;.7;;
537;SDS011;254;48.524;8.926;2023-01-09T04:43:03;1.4;;;.6;;
537;SDS011;254;48.524;8.926;2023-01-09T04:44:02;2.0;;;1.0;;
537;SDS011;254;48.524;8.926;2023-01-09T04:45:03;1.5;;;.6;;
537;SDS011;254;48.524;8.926;2023-01-09T04:46:02;1.4;;;.6;;
537;SDS011;254;48.524;8.926;2023-01-09T04:47:03;1.4;;;.6;;
537;SDS011;254;48.524;8.926;2023-01-09T04:48:02;1.6;;;.8;;
537;SDS011;254;48.524;8.926;2023-01-09T04:49:02;1.5;;;.6;;
537;SDS011;254;48.524;8.926;2023-01-09T04:50:03;1.5;;;.7;;
537;SDS011;254;48.524;8.926;2023-01-09T04:51:01;2.1;;;.7;;
537;SDS011;254;48.524;8.926;2023-01-09T04:52:02;1.4;;;.6;;
537;SDS011;254;48.524;8.926;2023-01-09T04:53:03;1.8;;;.7;;
537;SDS011;254;48.524;8.926;2023-01-09T04:54:02;1.6;;;.7;;
537;SDS011;254;48.524;8.926;2023-01-09T04:55:02;1.8;;;.7;;
537;SDS011;254;48.524;8.926;2023-01-09T04:56:01;2.7;;;.7;;
537;SDS011;254;48.524;8.926;2023-01-09T04:57:02;1.9;;;.6;;
537;SDS011;254;48.524;8.926;2023-01-09T04:58:02;1.8;;;.7;;
537;SDS011;254;48.524;8.926;2023-01-09T04:59:03;1.5;;;.6;;
537;SDS011;254;48.524;8.926;2023-01-09T05:00:02;1.4;;;.6;;
537;SDS011;254;48.524;8.926;2023-01-09T05:01:02;1.9;;;.6;;
537;SDS011;254;48.524;8.926;2023-01-09T05:02:01;1.5;;;.7;;
537;SDS011;254;48.524;8.926;2023-01-09T05:03:02;1.5;;;.7;;
537;SDS011;254;48.524;8.926;2023-01-09T05:04:03;2.0;;;.7;;
537;SDS011;254;48.524;8.926;2023-01-09T05:05:03;1.4;;;.6;;
537;SDS011;254;48.524;8.926;2023-01-09T05:06:02;2.2;;;.6;;
537;SDS011;254;48.524;8.926;2023-01-09T05:07:02;1.4;;;.6;;
537;SDS011;254;48.524;8.926;2023-01-09T05:08:02;2.4;;;.7;;
537;SDS011;254;48.524;8.926;2023-01-09T05:09:02;1.5;;;.7;;
537;SDS011;254;48.524;8.926;2023-01-09T05:10:03;1.4;;;.6;;
537;SDS011;254;48.524;8.926;2023-01-09T05:11:01;1.4;;;.6;;
537;SDS011;254;48.524;8.926;2023-01-09T05:12:02;1.5;;;.7;;
537;SDS011;254;48.524;8.926;2023-01-09T05:13:02;1.8;;;.7;;
537;SDS011;254;48.524;8.926;2023-01-09T05:14:02;1.4;;;.6;;
537;SDS011;254;48.524;8.926;2023-01-09T05:15:04;1.4;;;.6;;
537;SDS011;254;48.524;8.926;2023-01-09T05:16:03;1.4;;;.6;;
537;SDS011;254;48.524;8.926;2023-01-09T05:17:02;1.7;;;.6;;
537;SDS011;254;48.524;8.926;2023-01-09T05:18:02;1.5;;;.7;;
537;SDS011;254;48.524;8.926;2023-01-09T05:19:02;1.5;;;.7;;
537;SDS011;254;48.524;8.926;2023-01-09T05:20:03;1.5;;;.6;;
537;SDS011;254;48.524;8.926;2023-01-09T05:21:02;2.0;;;.7;;
537;SDS011;254;48.524;8.926;2023-01-09T05:22:03;2.3;;;.7;;
537;SDS011;254;48.524;8.926;2023-01-09T05:23:01;1.8;;;.7;;
537;SDS011;254;48.524;8.926;2023-01-09T05:24:02;1.4;;;.7;;
537;SDS011;254;48.524;8.926;2023-01-09T05:25:03;1.6;;;.7;;
537;SDS011;254;48.524;8.926;2023-01-09T05:26:01;2.2;;;.8;;
537;SDS011;254;48.524;8.926;2023-01-09T05:27:02;2.0;;;.7;;
537;SDS011;254;48.524;8.926;2023-01-09T05:28:03;2.2;;;.8;;
537;SDS011;254;48.524;8.926;2023-01-09T05:29:02;1.5;;;.8;;
537;SDS011;254;48.524;8.926;2023-01-09T05:30:03;1.4;;;.7;;
537;SDS011;254;48.524;8.926;2023-01-09T05:31:02;2.0;;;.7;;
537;SDS011;254;48.524;8.926;2023-01-09T05:32:01;2.3;;;.9;;
537;SDS011;254;48.524;8.926;2023-01-09T05:33:02;1.7;;;.8;;
537;SDS011;254;48.524;8.926;2023-01-09T05:34:03;1.4;;;.6;;
537;SDS011;254;48.524;8.926;2023-01-09T05:35:02;1.4;;;.6;;
537;SDS011;254;48.524;8.926;2023-01-09T05:36:02;2.2;;;.7;;
537;SDS011;254;48.524;8.926;2023-01-09T05:37:02;2.3;;;.7;;
537;SDS011;254;48.524;8.926;2023-01-09T05:38:02;1.6;;;.7;;
537;SDS011;254;48.524;8.926;2023-01-09T05:39:02;1.7;;;.7;;
537;SDS011;254;48.524;8.926;2023-01-09T05:40:02;1.8;;;.8;;
537;SDS011;254;48.524;8.926;2023-01-09T05:41:02;2.0;;;1.0;;
537;SDS011;254;48.524;8.926;2023-01-09T05:42:02;1.5;;;.7;;
537;SDS011;254;48.524;8.926;2023-01-09T05:43:01;1.6;;;.8;;
537;SDS011;254;48.524;8.926;2023-01-09T05:44:02;1.9;;;1.1;;
537;SDS011;254;48.524;8.926;2023-01-09T05:45:03;1.7;;;1.1;;
537;SDS011;254;48.524;8.926;2023-01-09T05:46:02;1.9;;;1.1;;
537;SDS011;254;48.524;8.926;2023-01-09T05:47:02;2.0;;;1.0;;
537;SDS011;254;48.524;8.926;2023-01-09T05:48:03;1.6;;;.9;;
537;SDS011;254;48.524;8.926;2023-01-09T05:49:01;1.8;;;1.6;;
537;SDS011;254;48.524;8.926;2023-01-09T05:50:02;2.4;;;2.0;;
537;SDS011;254;48.524;8.926;2023-01-09T05:51:02;2.1;;;1.5;;
537;SDS011;254;48.524;8.926;2023-01-09T05:52:02;1.9;;;1.0;;
537;SDS011;254;48.524;8.926;2023-01-09T05:53:02;4.1;;;3.0;;
537;SDS011;254;48.524;8.926;2023-01-09T05:54:03;3.3;;;3.0;;
537;SDS011;254;48.524;8.926;2023-01-09T05:55:02;1.8;;;1.3;;
537;SDS011;254;48.524;8.926;2023-01-09T05:56:02;2.9;;;1.2;;
537;SDS011;254;48.524;8.926;2023-01-09T05:57:02;3.3;;;1.0;;
537;SDS011;254;48.524;8.926;2023-01-09T05:58:02;2.9;;;1.4;;
537;SDS011;254;48.524;8.926;2023-01-09T05:59:03;1.7;;;1.1;;
537;SDS011;254;48.524;8.926;2023-01-09T06:00:02;1.7;;;1.2;;
537;SDS011;254;48.524;8.926;2023-01-09T06:01:01;1.7;;;1.1;;
537;SDS011;254;48.524;8.926;2023-01-09T06:02:02;2.5;;;1.2;;
537;SDS011;254;48.524;8.926;2023-01-09T06:03:03;1.9;;;.9;;
537;SDS011;254;48.524;8.926;2023-01-09T06:04:02;1.9;;;1.2;;
537;SDS011;254;48.524;8.926;2023-01-09T06:05:02;2.2;;;.9;;
537;SDS011;254;48.524;8.926;2023-01-09T06:06:02;4.1;;;1.2;;
537;SDS011;254;48.524;8.926;2023-01-09T06:07:02;1.6;;;1.0;;
537;SDS011;254;48.524;8.926;2023-01-09T06:08:02;2.4;;;1.1;;
537;SDS011;254;48.524;8.926;2023-01-09T06:09:02;2.4;;;1.0;;
537;SDS011;254;48.524;8.926;2023-01-09T06:10:02;2.3;;;1.0;;
537;SDS011;254;48.524;8.926;2023-01-09T06:11:02;2.6;;;1.0;;
537;SDS011;254;48.524;8.926;2023-01-09T06:12:02;1.6;;;.8;;
537;SDS011;254;48.524;8.926;2023-01-09T06:13:02;2.6;;;1.0;;
537;SDS011;254;48.524;8.926;2023-01-09T06:14:03;2.3;;;1.0;;
537;SDS011;254;48.524;8.926;2023-01-09T06:15:02;2.1;;;1.0;;
537;SDS011;254;48.524;8.926;2023-01-09T06:16:02;2.8;;;1.0;;
537;SDS011;254;48.524;8.926;2023-01-09T06:17:03;2.4;;;1.0;;
537;SDS011;254;48.524;8.926;2023-01-09T06:18:02;3.0;;;1.0;;
537;SDS011;254;48.524;8.926;2023-01-09T06:19:02;3.1;;;.8;;
537;SDS011;254;48.524;8.926;2023-01-09T06:20:02;2.4;;;1.0;;
537;SDS011;254;48.524;8.926;2023-01-09T06:21:02;2.1;;;.9;;
537;SDS011;254;48.524;8.926;2023-01-09T06:22:02;1.8;;;.8;;
537;SDS011;254;48.524;8.926;2023-01-09T06:23:02;2.0;;;.8;;
537;SDS011;254;48.524;8.926;2023-01-09T06:24:02;2.0;;;.8;;
537;SDS011;254;48.524;8.926;2023-01-09T06:25:04;3.5;;;1.3;;
537;SDS011;254;48.524;8.926;2023-01-09T06:26:02;3.4;;;1.9;;
537;SDS011;254;48.524;8.926;2023-01-09T06:27:02;2.3;;;.9;;
537;SDS011;254;48.524;8.926;2023-01-09T06:28:02;3.1;;;.8;;
537;SDS011;254;48.524;8.926;2023-01-09T06:29:02;1.9;;;.9;;
537;SDS011;254;48.524;8.926;2023-01-09T06:30:02;3.0;;;1.0;;
537;SDS011;254;48.524;8.926;2023-01-09T06:31:02;2.1;;;1.0;;
537;SDS011;254;48.524;8.926;2023-01-09T06:32:02;2.0;;;.9;;
537;SDS011;254;48.524;8.926;2023-01-09T06:33:02;2.6;;;.9;;
537;SDS011;254;48.524;8.926;2023-01-09T06:34:02;3.5;;;1.2;;
537;SDS011;254;48.524;8.926;2023-01-09T06:35:03;4.3;;;1.0;;
537;SDS011;254;48.524;8.926;2023-01-09T06:36:02;1.9;;;.9;;
537;SDS011;254;48.524;8.926;2023-01-09T06:37:02;2.9;;;1.1;;
537;SDS011;254;48.524;8.926;2023-01-09T06:38:02;2.8;;;1.0;;
537;SDS011;254;48.524;8.926;2023-01-09T06:39:03;2.2;;;.9;;
537;SDS011;254;48.524;8.926;2023-01-09T06:40:02;4.9;;;1.2;;
537;SDS011;254;48.524;8.926;2023-01-09T06:41:01;2.6;;;1.0;;
537;SDS011;254;48.524;8.926;2023-01-09T06:42:02;2.9;;;1.1;;